Main page
METAR-TAF:

METAR-TAF

Airports :

Madrid–Torrejón Airport

Madrid-Torrejón, Spain

latitude: 40-29N, longitude: 003-27W, elevation: 607 m

Current weather observation

The report was made 17 minutes ago, at 22:30 UTC
Wind 3 kt from the Northeast, varying between North and East
Temperature 12°C
Humidity 71%
Pressure 1017 hPa
Visibility 10 km or more
no clouds below 1500 m and no cumulonimbus

METAR: LETO 052230Z 05003KT 360V080 CAVOK 12/07 Q1017 NOSIG

Time: 00:47 (22:47 UTC)

Forecast

The report was made 5 hours and 47 minutes ago, at 17:00 UTC
Forecast valid from 05 at 18 UTC to 06 at 18 UTC
Wind 4 kt from variable directions
Visibility 10 km or more
no clouds below 1500 m and no cumulonimbus
Becoming
from 06 at 11 UTC to 06 at 13 UTC
Wind 10 kt from the Southwest

TAF: LETO 051700Z 0518/0618 VRB04KT CAVOK TX26/0615Z TN06/0606Z BECMG 0611/0613 23010KT

Weather observations and forecasts of more than 4000 airports (METAR and TAF reports).

The available stations are represented by yellow and red dots on the map.

Hover mouse over dot to see the name of the station.

Then click to see weather observations and forecasts.

To change the map : click on the green buttons with a black cross to zoom in, on the green button with a dash to zoom out, or on the green arrows for adjacent maps.


METAR-TAF: